createdAt,value
2022-08-20T00:04:49.922Z,20.60
2022-08-20T00:09:51.848Z,20.83
2022-08-20T00:14:53.787Z,19.75
2022-08-20T00:19:55.686Z,19.58
2022-08-20T00:24:57.572Z,21.17
2022-08-20T00:29:59.981Z,21.55
2022-08-20T00:35:01.867Z,21.70
2022-08-20T00:40:06.525Z,21.30
2022-08-20T00:45:27.109Z,22.52
2022-08-20T00:50:36.131Z,21.73
2022-08-20T00:55:40.023Z,21.95
2022-08-20T01:00:45.433Z,23.33
2022-08-20T01:05:50.925Z,22.52
2022-08-20T01:11:07.437Z,21.38
2022-08-20T01:16:18.879Z,23.45
2022-08-20T01:21:24.118Z,23.05
2022-08-20T01:26:38.480Z,23.63
2022-08-20T01:31:41.802Z,24.63
2022-08-20T01:36:53.572Z,24.63
2022-08-20T01:42:25.149Z,23.88
2022-08-20T01:47:31.506Z,25.70
2022-08-20T01:52:51.967Z,25.60
2022-08-20T01:57:54.552Z,24.92
2022-08-20T02:02:56.458Z,25.23
2022-08-20T02:07:58.623Z,27.58
2022-08-20T02:13:01.326Z,27.30
2022-08-20T02:18:08.068Z,27.38
2022-08-20T02:23:12.164Z,25.98
2022-08-20T02:28:17.176Z,24.88
2022-08-20T02:33:24.344Z,26.45
2022-08-20T02:38:26.564Z,26.67
2022-08-20T02:43:29.473Z,26.75
2022-08-20T02:48:33.619Z,28.63
2022-08-20T02:53:38.300Z,26.67
2022-08-20T02:58:40.515Z,26.15
2022-08-20T03:03:42.871Z,24.50
2022-08-20T03:08:44.832Z,24.92
2022-08-20T03:13:47.971Z,25.30
2022-08-20T03:18:52.180Z,24.92
2022-08-20T03:23:54.241Z,25.83
2022-08-20T03:28:56.216Z,24.95
2022-08-20T03:33:58.108Z,24.42
2022-08-20T03:39:04.449Z,23.30
2022-08-20T03:44:07.034Z,22.67
2022-08-20T03:49:09.025Z,22.33
2022-08-20T03:54:10.919Z,19.55
2022-08-20T03:59:12.880Z,19.05
2022-08-20T04:04:15.873Z,19.02
2022-08-20T04:09:17.985Z,18.25
2022-08-20T04:14:20.679Z,17.95
2022-08-20T04:19:22.917Z,15.23
2022-08-20T04:24:31.487Z,14.40
2022-08-20T04:29:36.658Z,13.00
2022-08-20T04:34:39.318Z,10.68
2022-08-20T04:39:41.253Z,9.98
2022-08-20T04:44:43.210Z,7.22
2022-08-20T04:49:45.085Z,6.32
2022-08-20T04:54:47.745Z,6.35
2022-08-20T04:59:51.863Z,5.10
2022-08-20T05:04:53.747Z,4.63
2022-08-20T05:09:55.669Z,4.43
2022-08-20T05:14:57.593Z,3.17
2022-08-20T05:20:00.573Z,4.32
2022-08-20T05:25:02.795Z,5.30
2022-08-20T05:30:07.913Z,7.35
2022-08-20T05:35:13.606Z,6.82
2022-08-20T05:40:16.482Z,7.68
2022-08-20T05:45:19.229Z,8.43
2022-08-20T05:50:23.482Z,7.25
2022-08-20T05:55:25.586Z,8.13
2022-08-20T06:00:29.712Z,6.72
2022-08-20T06:05:31.665Z,7.13
2022-08-20T06:10:34.801Z,7.55
2022-08-20T06:15:36.858Z,8.70
2022-08-20T06:20:39.026Z,10.10
2022-08-20T06:25:41.044Z,9.23
2022-08-20T06:30:43.013Z,10.55
2022-08-20T06:35:45.142Z,11.32
2022-08-20T06:40:47.244Z,13.73
2022-08-20T06:45:49.404Z,18.50
2022-08-20T06:50:51.408Z,17.90
2022-08-20T06:55:55.672Z,18.65
2022-08-20T07:00:58.768Z,18.67
2022-08-20T07:06:02.986Z,18.85
2022-08-20T07:11:04.922Z,19.48
2022-08-20T07:16:07.672Z,18.77
2022-08-20T07:21:09.835Z,17.63
2022-08-20T07:26:13.063Z,17.70
2022-08-20T07:31:35.046Z,17.10
2022-08-20T07:36:37.254Z,17.42
2022-08-20T07:41:39.227Z,15.68
2022-08-20T07:46:41.084Z,16.75
2022-08-20T07:51:43.037Z,16.55
2022-08-20T07:56:45.277Z,17.77
2022-08-20T08:01:47.182Z,16.95
2022-08-20T08:06:49.105Z,17.95
2022-08-20T08:11:51.859Z,17.25
2022-08-20T08:16:57.404Z,17.40
2022-08-20T08:21:59.380Z,16.58
2022-08-20T08:27:01.316Z,15.20
2022-08-20T08:32:05.097Z,15.95
2022-08-20T08:37:07.095Z,16.67
2022-08-20T08:42:44.107Z,16.63
2022-08-20T08:47:46.331Z,16.05
2022-08-20T08:52:53.108Z,15.48
2022-08-20T08:57:59.180Z,15.95
2022-08-20T09:03:10.862Z,17.25
2022-08-20T09:08:19.436Z,15.95
2022-08-20T09:13:21.398Z,16.65
2022-08-20T09:18:23.275Z,17.42
2022-08-20T09:23:25.192Z,19.23
2022-08-20T09:28:32.204Z,20.80
2022-08-20T09:33:36.892Z,19.85
2022-08-20T09:38:38.821Z,23.48
2022-08-20T09:43:40.864Z,21.17
2022-08-20T09:48:42.879Z,23.02
2022-08-20T09:53:46.250Z,23.55
2022-08-20T09:58:53.904Z,22.88
2022-08-20T10:03:55.797Z,23.48
2022-08-20T10:08:57.837Z,24.48
2022-08-20T10:13:59.795Z,24.92
2022-08-20T10:19:02.508Z,23.52
2022-08-20T10:24:04.588Z,25.38
2022-08-20T10:29:06.543Z,25.88
2022-08-20T10:34:08.592Z,25.48
2022-08-20T10:39:11.150Z,26.67
2022-08-20T10:44:13.064Z,25.08
2022-08-20T10:49:15.126Z,27.35
2022-08-20T10:54:17.041Z,25.17
2022-08-20T10:59:19.944Z,26.50
2022-08-20T11:04:21.811Z,27.77
2022-08-20T11:09:23.693Z,26.85
2022-08-20T11:14:25.619Z,25.70
2022-08-20T11:19:29.438Z,25.63
2022-08-20T11:24:31.302Z,26.88
2022-08-20T11:29:34.408Z,25.30
2022-08-20T11:34:36.640Z,24.90
2022-08-20T11:39:41.831Z,27.02
2022-08-20T11:44:44.336Z,25.73
2022-08-20T11:49:46.249Z,27.88
2022-08-20T11:54:52.945Z,25.38
2022-08-20T11:59:59.722Z,24.65
2022-08-20T12:05:01.724Z,24.02
2022-08-20T12:10:06.674Z,22.70
2022-08-20T12:15:10.492Z,23.58
2022-08-20T12:20:14.394Z,24.42
2022-08-20T12:25:16.562Z,25.02
2022-08-20T12:30:23.889Z,21.73
2022-08-20T12:35:27.059Z,22.63
2022-08-20T12:40:32.536Z,22.15
2022-08-20T12:45:37.081Z,21.17
2022-08-20T12:50:41.995Z,22.25
2022-08-20T12:55:44.504Z,21.45
2022-08-20T13:00:50.992Z,21.92
2022-08-20T13:05:53.192Z,22.90
2022-08-20T13:10:55.716Z,21.80
2022-08-20T13:15:58.133Z,22.70
2022-08-20T13:21:00.695Z,21.95
2022-08-20T13:26:03.093Z,19.90
2022-08-20T13:31:05.455Z,20.85
2022-08-20T13:36:07.756Z,22.05
2022-08-20T13:41:09.827Z,20.13
2022-08-20T13:46:12.431Z,22.20
2022-08-20T13:51:14.950Z,19.52
2022-08-20T13:56:22.398Z,20.35
2022-08-20T14:01:24.323Z,19.98
2022-08-20T14:06:26.429Z,20.20
2022-08-20T14:11:28.371Z,18.70
2022-08-20T14:16:35.651Z,19.35
2022-08-20T14:21:38.550Z,18.05
2022-08-20T14:26:40.541Z,17.30
2022-08-20T14:31:42.437Z,17.10
2022-08-20T14:36:44.340Z,15.88
2022-08-20T14:41:49.692Z,16.38
2022-08-20T14:46:51.620Z,16.88
2022-08-20T14:51:53.525Z,17.27
2022-08-20T14:57:01.914Z,17.58
2022-08-20T15:02:06.425Z,17.23
2022-08-20T15:07:25.983Z,18.02
2022-08-20T15:12:28.965Z,18.27
2022-08-20T15:17:31.210Z,17.90
2022-08-20T15:22:33.345Z,18.48
2022-08-20T15:27:37.081Z,17.52
2022-08-20T15:32:39.543Z,17.80
2022-08-20T15:37:44.116Z,17.42
2022-08-20T15:42:46.776Z,17.05
2022-08-20T15:47:48.734Z,17.90
2022-08-20T15:52:51.113Z,17.50
2022-08-20T15:58:04.630Z,17.50
2022-08-20T16:03:39.384Z,17.33
2022-08-20T16:09:12.647Z,18.63
2022-08-20T16:14:16.191Z,15.20
2022-08-20T16:19:26.339Z,13.68
2022-08-20T16:24:28.665Z,14.70
2022-08-20T16:29:42.826Z,16.35
2022-08-20T16:34:55.879Z,17.85
2022-08-20T16:40:19.735Z,18.35
2022-08-20T16:45:29.354Z,20.00
2022-08-20T16:50:46.222Z,18.30
2022-08-20T16:55:48.579Z,17.02
2022-08-20T17:01:09.958Z,15.40
2022-08-20T17:06:46.913Z,16.23
2022-08-20T17:11:49.839Z,16.95
2022-08-20T17:16:53.104Z,17.33
2022-08-20T17:21:56.277Z,17.85
2022-08-20T17:27:03.013Z,18.90
2022-08-20T17:32:23.442Z,18.63
2022-08-20T17:37:29.373Z,18.48
2022-08-20T17:42:52.839Z,20.52
2022-08-20T17:47:59.028Z,21.33
2022-08-20T17:53:21.077Z,21.92
2022-08-20T17:58:32.859Z,21.80
2022-08-20T18:03:34.987Z,19.70
2022-08-20T18:08:49.407Z,21.05
2022-08-20T18:14:17.121Z,22.38
2022-08-20T18:19:43.899Z,22.38
2022-08-20T18:24:46.105Z,23.17
2022-08-20T18:29:55.624Z,22.83
2022-08-20T18:35:35.393Z,21.80
2022-08-20T18:40:38.938Z,20.00
2022-08-20T18:45:41.782Z,22.05
2022-08-20T18:50:50.527Z,22.42
2022-08-20T18:56:09.177Z,21.85
2022-08-20T19:01:13.860Z,25.15
2022-08-20T19:06:15.879Z,23.63
2022-08-20T19:11:39.761Z,23.45
2022-08-20T19:16:51.192Z,21.55
2022-08-20T19:21:56.441Z,22.30
2022-08-20T19:27:04.983Z,21.70
2022-08-20T19:32:09.382Z,22.60
2022-08-20T19:37:35.783Z,20.92
2022-08-20T19:42:43.168Z,21.77
2022-08-20T19:47:54.971Z,20.83
2022-08-20T19:53:02.082Z,20.88
2022-08-20T19:58:16.882Z,22.02
2022-08-20T20:03:32.137Z,22.73
2022-08-20T20:08:45.574Z,20.65
2022-08-20T20:13:47.989Z,21.17
2022-08-20T20:19:09.068Z,20.30
2022-08-20T20:24:24.147Z,21.45
2022-08-20T20:29:34.458Z,21.13
2022-08-20T20:34:54.842Z,21.20
2022-08-20T20:40:19.234Z,20.02
2022-08-20T20:45:23.330Z,21.42
2022-08-20T20:50:36.935Z,20.48
2022-08-20T20:55:39.026Z,19.98
2022-08-20T21:00:41.097Z,20.20
2022-08-20T21:05:43.062Z,19.23
2022-08-20T21:10:44.897Z,20.33
2022-08-20T21:15:46.813Z,19.15
2022-08-20T21:20:50.868Z,21.75
2022-08-20T21:25:53.345Z,20.40
2022-08-20T21:30:58.293Z,19.98
2022-08-20T21:36:00.499Z,20.42
2022-08-20T21:41:02.684Z,21.48
2022-08-20T21:46:04.803Z,21.13
2022-08-20T21:51:07.096Z,20.77
2022-08-20T21:56:10.201Z,20.40
2022-08-20T22:01:12.883Z,21.17
2022-08-20T22:06:14.971Z,22.15
2022-08-20T22:11:17.566Z,21.42
2022-08-20T22:16:21.402Z,21.38
2022-08-20T22:21:26.015Z,21.85
2022-08-20T22:26:28.332Z,20.95
2022-08-20T22:31:32.404Z,20.58
2022-08-20T22:36:34.347Z,20.13
2022-08-20T22:41:39.436Z,20.30
2022-08-20T22:46:47.363Z,19.20
2022-08-20T22:51:50.894Z,19.95
2022-08-20T22:56:55.275Z,20.48
2022-08-20T23:01:57.557Z,19.55
2022-08-20T23:07:00.667Z,19.80
2022-08-20T23:12:02.630Z,20.50
2022-08-20T23:17:13.904Z,20.25
2022-08-20T23:22:16.728Z,19.95
2022-08-20T23:27:21.060Z,20.23
2022-08-20T23:32:22.989Z,20.30
2022-08-20T23:37:25.142Z,20.00
2022-08-20T23:42:27.013Z,20.33
2022-08-20T23:47:29.065Z,21.52
2022-08-20T23:52:31.021Z,20.95
2022-08-20T23:57:33.208Z,19.83
